フェニックス の空港の天気 - METARとTAF

フェニックス・スカイハーバー国際空港 ( KPHX / PHX ) - アメリカ アリゾナ州フェニックス
飛行場実況気象(Metar)
観測時間04/24 22:51 MST (04/25 05:51 UTC)
風向・風速西 2m/s
視程10km以上
天気現象
全天の8割程度の雲 雲底高度 7620m
気温29.4℃
湿度12%
気圧1009.6hPa
METARKPHX 250551Z 27004KT 10SM BKN250 29/M03 A2987 RMK AO2 SLP096 T02941028 10356 20278 51013
過去の天気等 Google飛行場航空写真 Wunderground天気予報

過去48時間のMETAR

飛行場予報(TAF)
発表時間: 4/24 22:20 MST (4/25 05:20 UTC)
予報対象時間: 24日23時 MST ~ 26日5時 MST
風向・風速西南西 3m/s
視程10km以上
全天の4割程度の雲 雲底高度 7,620m
25日2時 MST から
風向・風速東 3m/s
視程10km以上
少しの雲 雲底高度 7,620m
25日13時 MST から
風向・風速西 4m/s
視程10km以上
少しの雲 雲底高度 7,620m
26日2時 MST から
風向・風速東 3m/s
視程10km以上
なし
KPHX 250520Z 2506/2612 25005KT P6SM SCT250
FM250900 10005KT P6SM FEW250
FM252000 26007KT P6SM FEW250
FM260900 09005KT P6SM SKC